Time;durP1;ratioP1;P1;durP2;ratioP2;P2;SDS_P1;SDS_P2;PMS_P1;PMS_P2;Temp;Humidity;BMP_temperature;BMP_pressure;BME280_temperature;BME280_humidity;BME280_pressure;Samples;Min_cycle;Max_cycle;Signal;HPM_P1;HPM_P2
2023/01/09 07:37:42;;;;;;;0.33;0.33;;;8.10;99.90;8.10;99251.00;;;;5062362;28;20275;-74
2023/01/09 07:40:21;;;;;;;0.90;0.90;;;8.00;99.90;8.10;99264.00;;;;5040595;28;20594;-74
2023/01/09 07:43:10;;;;;;;3.60;0.43;;;8.00;99.90;7.90;99254.00;;;;5058442;28;20195;-73
2023/01/09 07:45:40;;;;;;;0.30;0.30;;;8.00;99.90;8.70;99265.00;;;;5055045;28;20191;-73
2023/01/09 07:48:26;;;;;;;0.40;0.40;;;8.10;99.90;8.70;99279.00;;;;5064337;28;20188;-73
2023/01/09 07:51:19;;;;;;;0.30;0.30;;;8.20;99.90;8.90;99225.00;;;;5051195;28;20589;-74
2023/01/09 07:53:45;;;;;;;1.03;0.70;;;8.40;99.90;8.40;99268.00;;;;5065809;28;20201;-74
2023/01/09 07:56:18;;;;;;;1.17;0.68;;;8.30;99.90;7.90;99289.00;;;;5064786;28;20415;-75
2023/01/09 07:58:46;;;;;;;0.30;0.30;;;8.10;99.90;8.20;99298.00;;;;5037966;28;20198;-75
2023/01/09 08:01:15;;;;;;;0.30;0.30;;;8.00;99.90;8.60;99270.00;;;;5034643;28;20203;-75
2023/01/09 08:03:44;;;;;;;0.30;0.30;;;8.10;99.90;8.60;99297.00;;;;5064106;28;20237;-74
2023/01/09 08:06:10;;;;;;;0.30;0.30;;;8.10;99.90;8.40;99324.00;;;;5027864;28;20580;-75
2023/01/09 08:08:35;;;;;;;0.67;0.53;;;8.20;99.90;8.10;99326.00;;;;5064375;28;20186;-75
2023/01/09 08:11:01;;;;;;;2.63;1.57;;;8.10;99.90;7.90;99317.00;;;;5060303;28;20230;-74
2023/01/09 08:13:27;;;;;;;0.27;0.27;;;8.10;99.90;8.00;99338.00;;;;5037367;28;20281;-75
2023/01/09 08:16:16;;;;;;;3.03;1.10;;;8.00;99.90;7.80;99344.00;;;;5069517;28;20178;-73
2023/01/09 08:18:44;;;;;;;1.53;1.00;;;8.00;99.90;7.90;99337.00;;;;5053134;28;20186;-73
2023/01/09 08:21:13;;;;;;;0.30;0.30;;;8.10;99.90;8.10;99337.00;;;;5062840;28;20187;-73
2023/01/09 08:23:39;;;;;;;0.70;0.67;;;8.10;99.90;8.10;99358.00;;;;5035374;28;20622;-74
2023/01/09 08:26:05;;;;;;;0.43;0.43;;;8.10;99.90;8.20;99304.00;;;;5065989;28;20202;-73
2023/01/09 08:28:31;;;;;;;1.60;1.03;;;8.10;99.90;8.40;99358.00;;;;5051669;28;20251;-73
2023/01/09 08:31:00;;;;;;;0.80;0.60;;;8.20;99.90;8.50;99361.00;;;;5061533;28;20292;-75
2023/01/09 08:33:26;;;;;;;0.97;0.50;;;8.30;99.90;8.30;99324.00;;;;5059801;28;20239;-73
2023/01/09 08:35:52;;;;;;;1.30;0.60;;;8.20;99.90;8.20;99352.00;;;;5061578;28;20213;-73
2023/01/09 08:38:20;;;;;;;1.23;1.00;;;8.20;99.90;7.70;99380.00;;;;5056879;28;20661;-72
2023/01/09 08:40:47;;;;;;;0.70;0.53;;;8.10;99.90;8.40;99392.00;;;;5056975;28;20642;-73
2023/01/09 08:48:49;;;;;;;0.50;0.50;;;8.30;99.90;8.30;99339.00;;;;5056994;28;20680;-72
2023/01/09 08:51:15;;;;;;;5.70;1.90;;;8.30;99.90;8.40;99388.00;;;;5037034;28;20192;-72
2023/01/09 08:53:41;;;;;;;0.30;0.30;;;8.30;99.90;8.60;99397.00;;;;5055140;28;20203;-72
2023/01/09 08:56:07;;;;;;;1.63;0.57;;;8.30;99.90;8.80;99389.00;;;;5062180;28;20185;-73
2023/01/09 08:58:33;;;;;;;0.93;0.70;;;8.40;99.90;8.20;99400.00;;;;5044043;28;20198;-72
2023/01/09 09:01:07;;;;;;;0.40;0.40;;;8.30;99.90;8.10;99410.00;;;;5050844;28;20548;-73
2023/01/09 09:03:32;;;;;;;0.50;0.50;;;8.20;99.90;8.40;99394.00;;;;5042335;28;20211;-72
2023/01/09 09:05:59;;;;;;;2.17;0.70;;;8.20;99.90;8.10;99420.00;;;;5036122;28;20328;-72
2023/01/09 09:08:28;;;;;;;0.40;0.40;;;8.20;99.90;8.60;99371.00;;;;5054145;28;20191;-72
2023/01/09 09:10:56;;;;;;;0.30;0.30;;;8.30;99.90;8.40;99424.00;;;;5049763;28;20728;-73
2023/01/09 09:13:22;;;;;;;6.70;0.83;;;8.30;99.90;8.50;99427.00;;;;5052949;28;20214;-73
2023/01/09 09:15:48;;;;;;;1.67;0.93;;;8.30;99.90;8.00;99451.00;;;;5053115;28;20204;-73
2023/01/09 09:18:14;;;;;;;0.97;0.97;;;8.20;99.90;9.00;99444.00;;;;5055521;28;20199;-73
2023/01/09 09:20:40;;;;;;;0.57;0.57;;;8.30;99.90;9.20;99455.00;;;;5053859;28;20218;-69
2023/01/09 09:23:09;;;;;;;0.30;0.30;;;8.50;99.90;8.30;99455.00;;;;5065830;28;20187;-72
2023/01/09 09:25:38;;;;;;;0.30;0.30;;;8.30;99.90;8.20;99454.00;;;;5050858;28;20237;-72
2023/01/09 09:28:05;;;;;;;0.57;0.57;;;8.20;99.90;8.70;99463.00;;;;5052646;28;20554;-72
2023/01/09 09:30:31;;;;;;;2.50;0.70;;;8.30;99.90;9.00;99475.00;;;;5039519;28;20198;-72
2023/01/09 09:32:57;;;;;;;0.73;0.70;;;8.60;99.90;8.50;99478.00;;;;5030887;28;20206;-72
2023/01/09 09:35:23;;;;;;;0.57;0.57;;;8.30;99.90;8.40;99484.00;;;;5055985;28;20301;-73
2023/01/09 09:37:58;;;;;;;0.60;0.60;;;8.30;99.90;8.70;99483.00;;;;5053237;28;20207;-72
2023/01/09 09:44:45;;;;;;;0.97;0.83;;;8.50;99.90;8.20;99453.00;;;;4986779;28;20224;-69
2023/01/09 09:47:39;;;;;;;0.97;0.83;;;8.30;99.90;8.40;99508.00;;;;5060780;28;20654;-71
2023/01/09 09:50:45;;;;;;;0.30;0.30;;;8.40;99.90;8.30;99507.00;;;;5058240;28;20197;-72
2023/01/09 09:53:31;;;;;;;0.30;0.30;;;8.30;99.90;8.60;99514.00;;;;5053196;28;20210;-72
2023/01/09 09:56:07;;;;;;;1.00;1.00;;;8.40;99.90;9.20;99513.00;;;;5048870;28;20467;-72
2023/01/09 09:59:18;;;;;;;0.30;0.30;;;8.60;99.90;8.70;99529.00;;;;5038351;28;20195;-71
2023/01/09 10:02:04;;;;;;;0.93;0.40;;;8.60;99.90;8.50;99525.00;;;;5046539;28;20187;-71
2023/01/09 10:05:01;;;;;;;0.40;0.40;;;8.40;99.90;8.60;99519.00;;;;5054080;28;20195;-71
2023/01/09 10:07:41;;;;;;;0.20;0.20;;;8.50;99.90;8.40;99548.00;;;;5029838;28;20290;-72
2023/01/09 10:10:29;;;;;;;0.30;0.30;;;8.30;99.90;8.60;99540.00;;;;5064441;28;20191;-72
2023/01/09 10:14:03;;;;;;;0.30;0.30;;;8.40;99.90;8.60;99560.00;;;;5035255;28;20205;-72
2023/01/09 10:15:57;;;;;;;1.70;0.40;;;8.40;99.90;8.50;99568.00;;;;5060370;28;20215;-72
2023/01/09 10:18:46;;;;;;;1.40;1.20;;;8.40;99.90;8.40;99524.00;;;;5055106;28;20206;-72
2023/01/09 10:34:04;;;;;;;1.50;1.07;;;8.10;99.90;8.00;99612.00;;;;5111033;27;20574;-72
2023/01/09 10:37:00;;;;;;;0.30;0.30;;;8.20;99.90;9.20;99604.00;;;;5069245;28;20640;-71
2023/01/09 10:39:31;;;;;;;1.17;1.07;;;8.60;99.90;8.80;99608.00;;;;5093723;28;20280;-70
2023/01/09 10:42:32;;;;;;;0.73;0.73;;;8.60;99.90;8.70;99597.00;;;;5090061;28;20185;-73
2023/01/09 10:45:36;;;;;;;1.80;1.03;;;8.70;99.90;8.40;99611.00;;;;5073931;28;20670;-69
2023/01/09 10:48:34;;;;;;;2.50;0.97;;;8.50;99.90;8.70;99557.00;;;;5079924;28;20181;-71
2023/01/09 10:55:18;;;;;;;2.23;0.80;;;8.50;99.90;9.10;99611.00;;;;5108039;28;20204;-71
2023/01/09 10:58:20;;;;;;;2.80;0.70;;;8.60;99.90;8.50;99618.00;;;;5088463;28;20187;-71
2023/01/09 11:00:48;;;;;;;0.30;0.30;;;8.60;99.90;9.10;99619.00;;;;5085807;28;20193;-71
2023/01/09 11:03:20;;;;;;;0.87;0.63;;;8.70;99.90;9.30;99614.00;;;;5088539;28;20218;-71
2023/01/09 11:05:59;;;;;;;2.93;1.80;;;8.90;99.90;9.10;99617.00;;;;5087885;28;20654;-70
2023/01/09 11:08:39;;;;;;;0.60;0.60;;;9.00;99.90;9.00;99612.00;;;;5085199;28;20273;-71
2023/01/09 11:11:08;;;;;;;4.27;1.57;;;8.90;99.90;9.80;99631.00;;;;5091215;28;20264;-71
2023/01/09 11:13:37;;;;;;;1.57;1.47;;;9.10;99.90;9.40;99616.00;;;;5086400;28;20189;-71
2023/01/09 11:16:06;;;;;;;1.47;0.97;;;9.20;99.90;9.40;99622.00;;;;5079790;28;20195;-70
2023/01/09 11:18:57;;;;;;;0.20;0.20;;;9.30;99.90;9.20;99618.00;;;;5089718;28;20189;-71
2023/01/09 11:21:40;;;;;;;1.50;0.87;;;9.00;99.90;8.70;99571.00;;;;5084939;28;20195;-71
2023/01/09 11:24:29;;;;;;;1.50;0.67;;;8.80;99.90;9.00;99619.00;;;;5112479;28;20588;-70
2023/01/09 11:27:24;;;;;;;2.37;1.03;;;8.70;99.90;8.70;99623.00;;;;5086307;28;20177;-70
2023/01/09 11:30:26;;;;;;;3.50;0.60;;;8.70;99.90;8.90;99552.00;;;;5070545;28;20173;-70
2023/01/09 11:32:56;;;;;;;2.30;0.95;;;8.70;99.90;9.50;99633.00;;;;5036399;28;20474;-72
2023/01/09 11:35:31;;;;;;;0.80;0.80;;;8.90;99.90;8.50;99641.00;;;;5074699;28;20681;-72
2023/01/09 11:38:16;;;;;;;1.93;1.07;;;8.80;99.90;8.50;99625.00;;;;5087578;28;20188;-72
2023/01/09 11:40:56;;;;;;;0.50;0.50;;;8.60;99.90;8.80;99641.00;;;;5088803;28;20639;-72
2023/01/09 11:43:37;;;;;;;0.27;0.27;;;8.70;99.90;9.80;99638.00;;;;5079209;28;20267;-72
2023/01/09 11:46:10;;;;;;;2.45;1.60;;;9.10;99.90;9.30;99638.00;;;;5079486;28;20478;-72
2023/01/09 11:48:55;;;;;;;1.47;1.07;;;9.00;99.90;9.20;99644.00;;;;5073853;28;20185;-72
2023/01/09 11:51:24;;;;;;;0.60;0.60;;;9.10;99.90;9.00;99649.00;;;;5068504;28;20214;-72
2023/01/09 11:54:19;;;;;;;11.87;8.90;;;9.00;99.90;9.20;99645.00;;;;5074247;28;20188;-72
2023/01/09 11:56:54;;;;;;;0.90;0.90;;;9.10;99.90;9.20;99658.00;;;;5078433;28;20197;-72
2023/01/09 12:00:38;;;;;;;7.80;1.77;;;9.00;99.90;9.70;99657.00;;;;5074375;28;20231;-71
2023/01/09 12:03:19;;;;;;;0.47;0.47;;;9.10;99.90;9.30;99607.00;;;;5010133;28;20221;-71
2023/01/09 12:06:04;;;;;;;0.50;0.50;;;9.10;99.90;9.50;99639.00;;;;5011537;28;20254;-71
2023/01/09 12:09:07;;;;;;;0.20;0.20;;;9.20;99.90;9.00;99663.00;;;;4995009;28;20290;-71
2023/01/09 12:12:40;;;;;;;0.70;0.67;;;8.90;99.90;9.20;99598.00;;;;4982731;28;20672;-71
2023/01/09 12:15:26;;;;;;;1.43;1.00;;;9.00;99.90;9.30;99667.00;;;;4984206;28;20259;-71
2023/01/09 12:19:19;;;;;;;0.30;0.30;;;8.90;99.90;9.10;99657.00;;;;5001968;28;20197;-71
2023/01/09 12:22:01;;;;;;;1.77;1.07;;;8.90;99.90;8.60;99676.00;;;;5043098;28;20215;-71
2023/01/09 12:25:11;;;;;;;1.37;0.90;;;8.70;99.90;8.90;99618.00;;;;5073251;28;20186;-71
2023/01/09 12:28:28;;;;;;;1.70;1.03;;;8.70;99.90;8.90;99674.00;;;;5073630;28;20652;-71
2023/01/09 12:31:23;;;;;;;1.27;1.20;;;8.70;99.90;9.10;99675.00;;;;5062778;28;20186;-72
2023/01/09 12:34:02;;;;;;;0.93;0.90;;;8.90;99.90;9.40;99660.00;;;;5074047;28;20196;-72
2023/01/09 12:37:21;;;;;;;2.63;2.40;;;9.00;99.90;9.10;99669.00;;;;5073352;28;20190;-72
2023/01/09 12:40:11;;;;;;;2.57;2.27;;;9.00;99.90;8.80;99680.00;;;;5045778;28;20187;-71
2023/01/09 12:42:56;;;;;;;1.30;1.20;;;8.80;99.90;8.90;99689.00;;;;5073313;28;20190;-72
2023/01/09 12:45:40;;;;;;;4.20;2.00;;;8.80;99.90;9.00;99655.00;;;;5070159;28;20702;-72
2023/01/09 12:49:00;;;;;;;2.50;1.50;;;8.90;99.90;9.50;99687.00;;;;5073034;28;20247;-72
2023/01/09 12:51:54;;;;;;;1.03;1.03;;;9.00;99.90;9.10;99687.00;;;;5041778;28;20218;-72
2023/01/09 12:55:05;;;;;;;2.77;2.23;;;9.00;99.90;10.00;99694.00;;;;5072714;28;20214;-72
2023/01/09 12:57:53;;;;;;;3.17;2.73;;;9.30;99.90;9.20;99691.00;;;;5076451;28;20188;-72
2023/01/09 13:00:29;;;;;;;0.93;0.93;;;9.20;99.90;9.40;99693.00;;;;5048191;28;20544;-72
2023/01/09 13:03:03;;;;;;;0.23;0.23;;;9.20;99.90;9.60;99682.00;;;;5052172;28;20596;-71
2023/01/09 13:05:48;;;;;;;1.20;0.90;;;9.30;99.90;9.40;99681.00;;;;5073385;28;20194;-70
2023/01/09 13:08:36;;;;;;;1.20;1.00;;;9.30;99.90;9.60;99705.00;;;;5067927;28;20209;-69
2023/01/09 13:11:11;;;;;;;1.90;1.37;;;9.40;99.90;9.30;99687.00;;;;5072489;28;20190;-72
2023/01/09 13:13:58;;;;;;;1.47;1.37;;;9.30;99.90;9.70;99711.00;;;;5069459;28;20554;-72
2023/01/09 13:16:32;;;;;;;1.00;1.00;;;9.40;99.90;9.40;99719.00;;;;5070006;28;20281;-71
2023/01/09 13:19:10;;;;;;;3.83;1.47;;;9.30;99.90;10.00;99711.00;;;;5072816;28;20296;-71
2023/01/09 13:21:37;;;;;;;5.57;2.10;;;9.40;99.90;9.80;99708.00;;;;5072653;28;20196;-72
2023/01/09 13:24:33;;;;;;;8.10;1.07;;;9.50;99.90;9.40;99715.00;;;;5068262;28;20195;-72
2023/01/09 13:27:12;;;;;;;4.10;1.57;;;9.50;99.90;10.20;99733.00;;;;5069475;28;20199;-71
2023/01/09 13:29:46;;;;;;;2.30;1.30;;;9.60;99.90;9.90;99734.00;;;;5066047;28;20188;-71
2023/01/09 13:32:47;;;;;;;2.77;1.43;;;9.60;99.90;10.30;99735.00;;;;5054815;28;20272;-71
2023/01/09 13:35:14;;;;;;;7.33;1.53;;;9.80;99.90;10.80;99724.00;;;;5071826;28;20187;-72
2023/01/09 13:37:50;;;;;;;17.83;4.10;;;10.00;99.90;10.70;99701.00;;;;5066286;28;20248;-72
2023/01/09 13:40:19;;;;;;;6.80;2.27;;;10.10;99.90;10.40;99767.00;;;;5072327;28;20536;-72
2023/01/09 13:43:15;;;;;;;11.33;1.70;;;10.00;99.90;10.30;99755.00;;;;5072377;28;20199;-71
2023/01/09 13:45:50;;;;;;;1.00;0.80;;;9.80;99.90;10.10;99754.00;;;;5060784;28;20635;-72
2023/01/09 13:48:28;;;;;;;4.67;1.17;;;9.70;99.90;9.30;99749.00;;;;5055465;28;20709;-72
2023/01/09 13:51:42;;;;;;;3.93;2.07;;;9.40;99.90;9.40;99763.00;;;;5072281;28;20277;-71
2023/01/09 13:54:09;;;;;;;0.20;0.20;;;9.40;99.90;10.00;99776.00;;;;5050026;28;20295;-72
2023/01/09 13:57:34;;;;;;;7.40;1.53;;;9.40;99.90;9.90;99779.00;;;;5075166;28;20552;-72
2023/01/09 14:00:12;;;;;;;1.60;1.13;;;9.50;99.90;9.70;99786.00;;;;5020944;28;20213;-72
2023/01/09 14:02:37;;;;;;;7.33;1.57;;;9.40;99.90;9.80;99793.00;;;;5073396;28;20534;-71
2023/01/09 14:05:34;;;;;;;10.70;2.13;;;9.50;99.90;10.20;99796.00;;;;5072935;28;20186;-72
2023/01/09 14:08:16;;;;;;;4.13;2.80;;;9.40;99.90;9.60;99788.00;;;;5041055;28;20241;-71
2023/01/09 14:10:47;;;;;;;7.43;1.90;;;9.30;99.90;9.50;99788.00;;;;5072887;28;20189;-72
2023/01/09 14:13:23;;;;;;;10.93;2.47;;;9.30;99.90;9.10;99804.00;;;;5071791;28;20236;-72
2023/01/09 14:15:51;;;;;;;1.37;1.37;;;9.20;99.90;9.40;99771.00;;;;5071938;28;20188;-72
2023/01/09 14:18:18;;;;;;;1.13;1.03;;;9.20;99.90;9.80;99808.00;;;;5072023;28;20262;-72
2023/01/09 14:20:54;;;;;;;5.30;1.20;;;9.30;99.90;9.90;99827.00;;;;5061553;28;20226;-72
2023/01/09 14:23:46;;;;;;;1.63;1.40;;;9.40;99.90;9.60;99827.00;;;;5088923;28;20430;-72
2023/01/09 14:26:41;;;;;;;2.90;0.63;;;9.30;99.90;10.50;99829.00;;;;5073925;28;20192;-72
2023/01/09 14:29:36;;;;;;;5.23;1.77;;;9.60;99.90;10.30;99861.00;;;;5070908;28;20673;-72
2023/01/09 14:32:39;;;;;;;4.70;1.63;;;9.70;99.90;10.20;99870.00;;;;5070530;28;20214;-72
2023/01/09 14:35:26;;;;;;;1.37;0.97;;;9.80;99.90;10.00;99878.00;;;;5070535;28;20192;-71
2023/01/09 14:38:05;;;;;;;1.70;1.13;;;9.60;99.90;10.00;99885.00;;;;5062649;28;20192;-72
2023/01/09 14:40:34;;;;;;;1.13;0.77;;;9.60;99.90;9.70;99831.00;;;;5070732;28;20592;-72
2023/01/09 14:43:30;;;;;;;2.53;0.30;;;9.40;99.90;9.20;99886.00;;;;5072919;28;20197;-71
2023/01/09 14:46:12;;;;;;;6.77;1.10;;;9.20;99.90;10.00;99901.00;;;;5066977;28;20183;-72
2023/01/09 14:49:04;;;;;;;2.13;0.60;;;9.30;99.90;10.20;99909.00;;;;5063021;28;20594;-72
2023/01/09 14:51:35;;;;;;;0.20;0.20;;;9.50;99.90;11.10;99926.00;;;;5059745;28;20296;-72
2023/01/09 14:54:17;;;;;;;0.20;0.20;;;9.80;99.90;11.60;99945.00;;;;5099418;28;20239;-71
2023/01/09 14:56:46;;;;;;;0.30;0.30;;;10.10;99.90;11.70;99955.00;;;;5081031;28;20185;-72
2023/01/09 14:59:16;;;;;;;0.30;0.30;;;10.20;99.90;11.50;99951.00;;;;5072585;28;20181;-72
2023/01/09 15:01:45;;;;;;;0.30;0.30;;;10.20;99.90;10.40;99946.00;;;;5054713;28;20243;-72
2023/01/09 15:04:33;;;;;;;0.30;0.30;;;9.70;99.90;10.60;99944.00;;;;5072112;28;20204;-70
2023/01/09 15:07:19;;;;;;;0.30;0.30;;;9.60;99.90;10.40;99953.00;;;;5083142;28;20180;-71
2023/01/09 15:10:10;;;;;;;3.40;0.80;;;9.50;99.90;8.80;99943.00;;;;5070896;28;20188;-81
2023/01/09 15:12:36;;;;;;;0.30;0.30;;;8.90;99.90;8.80;99892.00;;;;5069732;28;20210;-75
2023/01/09 15:15:11;;;;;;;0.40;0.40;;;8.70;99.90;8.80;99951.00;;;;5055359;28;20325;-76
2023/01/09 15:18:05;;;;;;;1.33;0.83;;;8.50;99.90;8.90;99957.00;;;;5071649;28;20187;-77
2023/01/09 15:21:01;;;;;;;0.30;0.30;;;8.50;99.90;9.00;99986.00;;;;5074709;28;20185;-69
2023/01/09 15:23:39;;;;;;;0.60;0.60;;;8.70;99.90;8.70;99993.00;;;;5075330;28;20189;-71
2023/01/09 15:26:28;;;;;;;5.03;1.17;;;8.50;99.90;9.10;99992.00;;;;5082133;28;20181;-71
2023/01/09 15:29:24;;;;;;;0.73;0.47;;;8.60;99.90;8.70;99987.00;;;;5063810;28;20587;-72
2023/01/09 15:32:17;;;;;;;4.78;1.33;;;8.50;99.90;8.90;99979.00;;;;5052667;28;20446;-72
2023/01/09 15:34:47;;;;;;;0.30;0.30;;;8.50;99.90;8.60;100010.00;;;;5074357;28;20210;-72
2023/01/09 15:37:36;;;;;;;1.43;1.33;;;8.40;99.90;8.60;100002.00;;;;5091512;28;20187;-72
2023/01/09 15:40:20;;;;;;;0.40;0.40;;;8.30;99.90;8.70;100013.00;;;;5063337;28;20183;-72
2023/01/09 15:42:54;;;;;;;0.83;0.83;;;8.40;99.90;8.60;100011.00;;;;5074375;28;20649;-72
2023/01/09 15:45:43;;;;;;;1.70;1.60;;;8.30;99.90;9.40;100003.00;;;;5075875;28;20269;-72
2023/01/09 15:48:30;;;;;;;0.40;0.40;;;8.50;99.90;8.50;100026.00;;;;5075174;28;20173;-72
2023/01/09 15:51:16;;;;;;;1.53;0.70;;;8.30;99.90;8.60;100039.00;;;;5074523;28;20185;-72
2023/01/09 15:53:45;;;;;;;0.37;0.37;;;8.20;99.90;8.30;100029.00;;;;5067769;28;20196;-72
2023/01/09 15:56:11;;;;;;;1.43;1.00;;;8.10;99.90;8.60;100035.00;;;;5056972;28;20619;-72
2023/01/09 15:58:45;;;;;;;4.77;1.47;;;8.10;99.90;9.00;100038.00;;;;5071959;28;20323;-72
2023/01/09 16:01:32;;;;;;;3.33;0.60;;;8.20;99.90;8.50;100044.00;;;;5057465;28;20268;-72
2023/01/09 16:04:11;;;;;;;1.23;0.90;;;8.10;99.90;8.40;100004.00;;;;5049680;28;20545;-72
2023/01/09 16:06:48;;;;;;;0.30;0.30;;;8.10;99.90;8.60;100056.00;;;;5101208;28;20545;-72
2023/01/09 16:09:20;;;;;;;0.30;0.30;;;8.20;99.90;8.50;100058.00;;;;5105663;28;20185;-72
2023/01/09 16:11:51;;;;;;;3.20;1.53;;;8.20;99.90;8.90;100074.00;;;;5074047;28;20303;-72
2023/01/09 16:14:49;;;;;;;0.57;0.50;;;8.30;99.90;8.20;100077.00;;;;5073468;28;20659;-73
2023/01/09 16:17:18;;;;;;;2.83;0.90;;;8.20;99.90;8.40;100096.00;;;;5074095;28;20205;-73
2023/01/09 16:20:53;;;;;;;4.93;2.57;;;8.20;99.90;8.30;100113.00;;;;5074187;28;20609;-73
2023/01/09 16:23:34;;;;;;;0.90;0.90;;;8.10;99.90;8.30;100133.00;;;;5065854;28;20621;-72
2023/01/09 16:26:12;;;;;;;0.40;0.40;;;8.10;99.90;8.70;100124.00;;;;5074530;28;20261;-73
2023/01/09 16:28:42;;;;;;;2.88;0.77;;;8.10;99.90;8.40;100125.00;;;;5056888;28;20517;-72
2023/01/09 16:31:29;;;;;;;7.80;1.03;;;8.10;99.90;8.30;100133.00;;;;5090295;28;20189;-72
2023/01/09 16:34:06;;;;;;;7.93;1.63;;;8.00;99.90;8.40;100135.00;;;;5073999;28;20235;-72
2023/01/09 16:36:35;;;;;;;0.73;0.60;;;8.00;99.90;8.20;100146.00;;;;5073641;28;20666;-71
2023/01/09 16:39:02;;;;;;;1.80;1.10;;;8.00;99.90;8.60;100163.00;;;;5074135;28;20188;-72
2023/01/09 16:45:14;;;;;;;2.23;1.73;;;8.10;99.90;8.40;100147.00;;;;5073044;28;20276;-72
2023/01/09 16:47:40;;;;;;;0.77;0.77;;;8.10;99.90;8.20;100166.00;;;;5073415;28;20919;-72
2023/01/09 16:50:11;;;;;;;2.97;0.97;;;8.00;99.90;8.20;100163.00;;;;5074955;28;20260;-72
2023/01/09 16:52:43;;;;;;;0.53;0.53;;;7.90;99.90;9.20;100177.00;;;;5073771;28;20201;-72
2023/01/09 16:55:20;;;;;;;0.30;0.30;;;8.20;99.90;9.50;100130.00;;;;5063586;28;20196;-72
2023/01/09 16:57:46;;;;;;;0.50;0.50;;;8.30;99.90;9.40;100189.00;;;;5061535;28;20185;-72
2023/01/09 17:00:36;;;;;;;0.63;0.63;;;8.50;99.90;9.80;100145.00;;;;5072770;28;20185;-72
2023/01/09 17:03:05;;;;;;;0.40;0.40;;;8.70;99.90;9.80;100196.00;;;;5074435;28;20193;-72
2023/01/09 17:05:38;;;;;;;0.40;0.40;;;8.70;99.90;10.00;100195.00;;;;5072921;28;20190;-72
2023/01/09 17:08:36;;;;;;;0.40;0.40;;;8.80;99.90;10.20;100206.00;;;;5072728;28;20191;-72
2023/01/09 17:11:03;;;;;;;0.40;0.40;;;8.90;99.90;10.30;100204.00;;;;5068825;28;20247;-72
2023/01/09 17:13:29;;;;;;;0.73;0.73;;;9.00;99.90;10.20;100218.00;;;;5067870;28;20212;-72
2023/01/09 17:15:57;;;;;;;1.50;1.10;;;9.00;99.90;10.10;100215.00;;;;5086282;28;20184;-72
2023/01/09 17:18:25;;;;;;;0.50;0.50;;;8.80;99.90;10.30;100223.00;;;;5086907;28;20198;-72
2023/01/09 17:20:55;;;;;;;0.50;0.50;;;8.90;99.90;10.40;100230.00;;;;5085559;28;20201;-72
2023/01/09 17:23:24;;;;;;;0.77;0.77;;;9.10;99.90;10.40;100230.00;;;;5072446;28;20204;-71
2023/01/09 17:28:51;;;;;;;0.83;0.83;;;9.10;99.90;10.30;100244.00;;;;5072826;28;20208;-72
2023/01/09 17:31:17;;;;;;;2.57;2.37;;;9.10;99.90;9.60;100204.00;;;;5083134;28;20198;-72
2023/01/09 17:33:43;;;;;;;0.77;0.77;;;8.90;99.90;9.20;100246.00;;;;5072180;28;20193;-71
2023/01/09 17:36:33;;;;;;;0.60;0.60;;;8.70;99.90;8.90;100246.00;;;;5062256;28;20182;-71
2023/01/09 17:39:00;;;;;;;0.83;0.83;;;8.60;99.90;8.70;100252.00;;;;5069403;28;20269;-71
2023/01/09 17:41:29;;;;;;;0.57;0.57;;;8.40;99.90;8.80;100267.00;;;;5071678;28;20182;-71
2023/01/09 17:43:56;;;;;;;1.93;1.63;;;8.30;99.90;8.80;100279.00;;;;5055246;28;20213;-72
2023/01/09 17:46:34;;;;;;;4.97;1.97;;;8.30;99.90;8.90;100259.00;;;;5072479;28;20263;-72
2023/01/09 17:49:20;;;;;;;1.23;1.13;;;8.30;99.90;8.70;100282.00;;;;5060105;28;20196;-72
2023/01/09 17:51:46;;;;;;;0.40;0.40;;;8.30;99.90;9.20;100289.00;;;;5070180;28;20202;-72
2023/01/09 17:54:14;;;;;;;2.40;2.20;;;8.40;99.90;9.30;100295.00;;;;5070770;28;20664;-72
2023/01/09 17:56:48;;;;;;;0.30;0.30;;;8.50;99.90;9.70;100314.00;;;;5054712;28;20178;-72
2023/01/09 17:59:15;;;;;;;0.40;0.40;;;8.70;99.90;9.80;100304.00;;;;5102809;28;20293;-72
2023/01/09 18:01:48;;;;;;;0.40;0.40;;;8.80;99.90;9.80;100335.00;;;;5072391;28;20232;-72
2023/01/09 18:04:17;;;;;;;0.63;0.63;;;8.80;99.90;9.90;100321.00;;;;5055463;28;20282;-72
2023/01/09 18:06:43;;;;;;;1.30;1.20;;;8.90;99.90;10.20;100323.00;;;;5059273;28;20198;-72
2023/01/09 18:09:15;;;;;;;0.50;0.50;;;8.90;99.90;10.30;100335.00;;;;5047594;28;20182;-73
2023/01/09 18:11:47;;;;;;;0.40;0.40;;;8.90;99.90;10.30;100370.00;;;;5071597;28;20461;-72
2023/01/09 18:14:20;;;;;;;0.40;0.40;;;9.00;99.90;10.30;100317.00;;;;5071417;28;20254;-73
2023/01/09 18:16:46;;;;;;;0.70;0.70;;;9.10;99.90;10.10;100378.00;;;;5071391;28;20191;-72
2023/01/09 18:19:32;;;;;;;0.40;0.40;;;9.00;99.90;10.40;100341.00;;;;5071728;28;20284;-72
2023/01/09 18:22:05;;;;;;;0.40;0.40;;;9.00;99.90;10.70;100397.00;;;;5071815;28;20273;-73
2023/01/09 18:24:31;;;;;;;0.40;0.40;;;9.20;99.90;10.20;100398.00;;;;5071676;28;20205;-72
2023/01/09 18:26:57;;;;;;;0.40;0.40;;;9.10;99.90;10.40;100359.00;;;;5080256;28;20229;-72
2023/01/09 18:29:40;;;;;;;0.50;0.50;;;9.00;99.90;10.10;100413.00;;;;5072661;28;20189;-72
2023/01/09 18:32:06;;;;;;;0.50;0.50;;;8.90;99.90;10.40;100415.00;;;;5099201;28;20232;-73
2023/01/09 18:34:32;;;;;;;0.50;0.50;;;8.90;99.90;10.40;100419.00;;;;5071660;28;20179;-73
2023/01/09 18:37:01;;;;;;;0.40;0.40;;;8.90;99.90;10.40;100424.00;;;;5071763;28;20235;-73
2023/01/09 18:39:26;;;;;;;0.50;0.50;;;8.90;99.90;10.30;100439.00;;;;5054837;28;20219;-73
2023/01/09 18:41:52;;;;;;;1.23;0.93;;;8.90;99.90;10.70;100434.00;;;;5073215;28;20267;-73
2023/01/09 18:44:20;;;;;;;0.57;0.57;;;9.00;99.90;10.40;100459.00;;;;5049272;28;20348;-73
2023/01/09 18:46:47;;;;;;;0.47;0.47;;;9.00;99.90;10.70;100462.00;;;;5071952;28;20668;-77
2023/01/09 18:49:15;;;;;;;0.40;0.40;;;9.10;99.90;10.30;100478.00;;;;5072039;28;20182;-72
2023/01/09 18:51:46;;;;;;;1.40;1.40;;;9.00;99.90;10.80;100451.00;;;;5071214;28;20224;-72
2023/01/09 18:54:19;;;;;;;0.40;0.40;;;9.10;99.90;10.70;100493.00;;;;5074839;28;20198;-72
2023/01/09 18:56:44;;;;;;;0.50;0.50;;;9.20;99.90;10.30;100453.00;;;;5057662;28;20218;-72
2023/01/09 18:59:34;;;;;;;0.70;0.70;;;9.10;99.90;10.60;100497.00;;;;5066299;28;20273;-72
2023/01/09 19:02:00;;;;;;;0.50;0.50;;;9.20;99.90;10.60;100490.00;;;;5065427;28;20284;-72
2023/01/09 19:04:37;;;;;;;0.40;0.40;;;9.10;99.90;9.80;100498.00;;;;5073061;28;20266;-73
2023/01/09 19:07:02;;;;;;;0.87;0.87;;;8.90;99.90;10.00;100490.00;;;;5058776;28;20207;-72
2023/01/09 19:09:44;;;;;;;0.40;0.40;;;8.90;99.90;9.40;100468.00;;;;5059196;28;20189;-73
2023/01/09 19:12:27;;;;;;;0.73;0.73;;;8.60;99.90;8.30;100490.00;;;;5073690;28;20262;-72
2023/01/09 19:15:00;;;;;;;3.70;1.47;;;8.10;99.90;8.30;100508.00;;;;5074435;28;20374;-72
2023/01/09 19:17:33;;;;;;;2.70;1.30;;;7.80;99.90;7.80;100513.00;;;;5075110;28;20196;-72
2023/01/09 19:20:06;;;;;;;1.93;1.23;;;7.70;99.90;7.90;100519.00;;;;5073389;28;20188;-71
2023/01/09 19:22:48;;;;;;;1.63;1.63;;;7.60;99.90;8.10;100535.00;;;;5071380;28;20193;-72
2023/01/09 19:25:17;;;;;;;0.77;0.60;;;7.70;99.90;7.60;100507.00;;;;5075750;28;20261;-72
2023/01/09 19:27:48;;;;;;;0.70;0.70;;;7.50;99.90;7.80;100526.00;;;;5074755;28;20190;-72
2023/01/09 19:30:17;;;;;;;1.30;1.20;;;7.50;99.90;7.60;100539.00;;;;5075984;28;20189;-71
2023/01/09 19:32:43;;;;;;;3.07;0.87;;;7.50;99.90;8.50;100494.00;;;;5076292;28;20208;-73
2023/01/09 19:35:17;;;;;;;2.70;2.20;;;7.70;99.90;7.50;100554.00;;;;5074881;28;20185;-72
2023/01/09 19:37:48;;;;;;;0.40;0.40;;;7.60;99.90;8.50;100560.00;;;;5069452;28;20186;-71
2023/01/09 19:40:38;;;;;;;1.40;1.40;;;7.80;99.90;8.80;100574.00;;;;5074629;28;20671;-71
2023/01/09 19:43:24;;;;;;;0.60;0.60;;;8.00;99.90;8.70;100562.00;;;;5074564;28;20215;-71
2023/01/09 19:45:55;;;;;;;0.60;0.60;;;8.00;99.90;8.50;100573.00;;;;5059375;28;20173;-71
2023/01/09 19:48:45;;;;;;;0.30;0.30;;;8.00;99.90;8.50;100572.00;;;;5075823;28;20190;-71
2023/01/09 19:51:24;;;;;;;0.40;0.40;;;7.90;99.90;9.00;100571.00;;;;5074094;28;20182;-71
2023/01/09 19:54:00;;;;;;;1.13;1.03;;;7.90;99.90;8.90;100573.00;;;;5075939;28;20637;-71
2023/01/09 19:56:42;;;;;;;0.40;0.40;;;8.10;99.90;8.90;100530.00;;;;5075695;28;20177;-71
2023/01/09 19:59:39;;;;;;;0.50;0.50;;;8.10;99.90;8.70;100590.00;;;;5073174;28;20177;-71
2023/01/09 20:02:30;;;;;;;0.50;0.50;;;8.10;99.90;7.90;100588.00;;;;5071958;28;20641;-72
2023/01/09 20:05:21;;;;;;;0.30;0.30;;;7.70;99.90;7.80;100596.00;;;;5073550;28;20186;-71
2023/01/09 20:08:17;;;;;;;0.50;0.50;;;7.50;99.90;7.70;100582.00;;;;5074102;28;20184;-71